Time;durP1;ratioP1;P1;durP2;ratioP2;P2;SDS_P1;SDS_P2;PMS_P1;PMS_P2;Temp;Humidity;BMP_temperature;BMP_pressure;BME280_temperature;BME280_humidity;BME280_pressure;Samples;Min_cycle;Max_cycle;Signal;HPM_P1;HPM_P2
2023/01/01 00:00:24;;;;;;;18.31;16.91;;;;;;;4.60;75.26;101921.33;450386;118;922476;-78
2023/01/01 00:01:28;;;;;;;18.90;17.07;;;;;;;4.63;75.21;101922.05;450313;118;922567;-79
2023/01/01 00:02:32;;;;;;;17.24;15.75;;;;;;;4.66;75.32;101922.60;449283;118;922603;-80
2023/01/01 00:03:38;;;;;;;16.92;15.54;;;;;;;4.68;75.22;101922.47;449962;118;922606;-77
2023/01/01 00:04:41;;;;;;;17.41;16.00;;;;;;;4.70;75.24;101921.30;450163;118;922525;-78
2023/01/01 00:05:44;;;;;;;16.26;14.86;;;;;;;4.72;75.28;101919.33;450246;118;922912;-78
2023/01/01 00:06:48;;;;;;;15.98;14.75;;;;;;;4.73;75.16;101918.34;450243;118;922403;-78
2023/01/01 00:07:51;;;;;;;14.59;13.49;;;;;;;4.74;75.18;101914.61;449680;118;922571;-79
2023/01/01 00:10:28;;;;;;;13.29;12.18;;;;;;;4.76;75.04;101917.17;450052;118;922952;-78
2023/01/01 00:11:31;;;;;;;11.67;10.76;;;;;;;4.75;75.15;101913.62;450040;118;922707;-78
2023/01/01 00:12:34;;;;;;;13.08;11.99;;;;;;;4.76;75.24;101920.73;448935;118;923100;-78
2023/01/01 00:13:40;;;;;;;12.41;11.51;;;;;;;4.78;75.13;101920.59;442690;120;922958;-77
2023/01/01 00:14:43;;;;;;;11.92;11.02;;;;;;;4.77;75.27;101922.44;442475;120;922567;-79
2023/01/01 00:15:47;;;;;;;11.15;10.31;;;;;;;4.79;75.24;101920.47;442555;120;922475;-78
2023/01/01 00:16:50;;;;;;;11.54;10.65;;;;;;;4.79;75.11;101914.20;442651;120;922928;-80
2023/01/01 00:17:53;;;;;;;12.28;11.28;;;;;;;4.80;75.11;101910.48;445606;118;922464;-79
2023/01/01 00:18:57;;;;;;;11.84;10.93;;;;;;;4.83;75.09;101915.61;450096;118;930259;-78
2023/01/01 00:20:00;;;;;;;12.15;11.26;;;;;;;4.85;75.26;101910.92;450176;118;930277;-79
2023/01/01 00:21:12;;;;;;;10.81;9.99;;;;;;;4.85;75.25;101905.52;450118;118;923414;-77
2023/01/01 00:22:16;;;;;;;11.68;10.78;;;;;;;4.88;75.23;101907.92;449957;116;922638;-78
2023/01/01 00:23:21;;;;;;;10.83;10.02;;;;;;;4.88;75.17;101908.77;445684;118;922605;-79
2023/01/01 00:24:24;;;;;;;10.48;9.78;;;;;;;4.89;75.06;101906.92;449101;118;922542;-78
2023/01/01 00:25:27;;;;;;;10.24;9.43;;;;;;;4.90;74.94;101912.19;449137;118;922534;-79
2023/01/01 00:26:31;;;;;;;10.41;9.69;;;;;;;4.91;74.94;101916.58;449145;118;922658;-79
2023/01/01 00:27:36;;;;;;;9.61;8.89;;;;;;;4.91;75.01;101905.77;447763;118;923015;-79
2023/01/01 00:28:39;;;;;;;9.46;8.70;;;;;;;4.94;75.23;101900.08;449157;118;922600;-77
2023/01/01 00:29:42;;;;;;;9.43;8.70;;;;;;;4.98;75.18;101908.73;449113;118;922476;-80
2023/01/01 00:30:45;;;;;;;9.23;8.61;;;;;;;5.01;75.22;101900.36;449141;118;922510;-79
2023/01/01 00:31:48;;;;;;;8.87;8.27;;;;;;;5.03;75.25;101892.94;449110;118;922960;-79
2023/01/01 00:32:51;;;;;;;8.12;7.46;;;;;;;5.05;75.17;101896.35;444033;118;922736;-80
2023/01/01 00:33:57;;;;;;;8.39;7.79;;;;;;;5.06;74.99;101895.36;437059;121;923063;-77
2023/01/01 00:35:00;;;;;;;8.74;8.14;;;;;;;5.06;75.15;101895.36;437339;121;922597;-80
2023/01/01 00:36:08;;;;;;;8.25;7.65;;;;;;;5.07;75.11;101902.48;437393;121;922469;-79
2023/01/01 00:37:11;;;;;;;8.91;8.13;;;;;;;5.08;74.98;101898.75;437252;121;922603;-78
2023/01/01 00:38:14;;;;;;;8.70;8.10;;;;;;;5.10;74.86;101901.31;441670;118;922549;-77
2023/01/01 00:39:17;;;;;;;8.72;8.03;;;;;;;5.10;74.93;101899.47;441632;120;922575;-79
2023/01/01 00:40:21;;;;;;;8.48;7.90;;;;;;;5.10;74.85;101902.17;441608;120;922970;-79
2023/01/01 00:41:24;;;;;;;8.54;7.81;;;;;;;5.12;74.83;101907.44;441471;120;922891;-78
2023/01/01 00:42:27;;;;;;;8.23;7.64;;;;;;;5.12;74.78;101897.48;441988;118;922576;-79
2023/01/01 00:43:30;;;;;;;7.98;7.37;;;;;;;5.12;74.78;101902.03;441643;120;922594;-79
2023/01/01 00:44:34;;;;;;;8.18;7.43;;;;;;;5.11;74.72;101901.17;441466;120;922781;-79
2023/01/01 00:45:37;;;;;;;7.92;7.26;;;;;;;5.10;74.62;101898.61;441531;120;928817;-79
2023/01/01 00:46:40;;;;;;;7.92;7.32;;;;;;;5.08;74.71;101898.75;441585;120;922689;-79
2023/01/01 00:47:43;;;;;;;8.84;8.07;;;;;;;5.08;74.60;101908.70;443575;118;922936;-79
2023/01/01 00:48:46;;;;;;;7.97;7.37;;;;;;;5.07;74.68;101894.37;449181;118;922679;-78
2023/01/01 00:49:49;;;;;;;7.66;7.07;;;;;;;5.05;74.52;101896.35;449184;118;922888;-80
2023/01/01 00:50:52;;;;;;;7.78;7.17;;;;;;;5.02;74.53;101893.92;449183;118;922581;-78
2023/01/01 00:51:55;;;;;;;7.63;7.11;;;;;;;5.00;74.64;101885.13;449157;118;922456;-79
2023/01/01 00:52:58;;;;;;;7.52;6.94;;;;;;;4.97;74.58;101894.37;445009;118;922441;-79
2023/01/01 00:54:02;;;;;;;8.16;7.56;;;;;;;4.96;74.66;101892.66;441552;120;922451;-78
2023/01/01 00:55:05;;;;;;;7.55;6.96;;;;;;;4.96;74.69;101895.36;442185;118;922778;-79
2023/01/01 00:56:09;;;;;;;7.69;7.11;;;;;;;4.95;74.79;101890.98;449042;118;922498;-78
2023/01/01 00:57:12;;;;;;;7.59;7.09;;;;;;;4.93;74.83;101889.41;449148;118;922497;-78
2023/01/01 00:58:17;;;;;;;7.80;7.23;;;;;;;4.91;74.73;101894.95;448268;118;923014;-79
2023/01/01 00:59:20;;;;;;;7.17;6.67;;;;;;;4.90;74.72;101887.02;449008;118;922859;-79
2023/01/01 01:00:25;;;;;;;7.53;6.93;;;;;;;4.89;74.82;101888.86;448314;118;922815;-79
2023/01/01 01:01:29;;;;;;;7.99;7.39;;;;;;;4.89;74.97;101885.30;449121;118;922629;-78
2023/01/01 01:02:32;;;;;;;7.62;6.99;;;;;;;4.86;74.90;101880.17;447403;118;922981;-79
2023/01/01 01:03:38;;;;;;;8.01;7.35;;;;;;;4.84;75.04;101876.78;436505;121;922714;-78
2023/01/01 01:04:41;;;;;;;7.72;7.14;;;;;;;4.84;75.18;101876.78;436411;121;922603;-77
2023/01/01 01:05:44;;;;;;;7.89;7.30;;;;;;;4.83;75.25;101861.56;436601;121;922532;-79
2023/01/01 01:06:48;;;;;;;8.26;7.71;;;;;;;4.83;75.26;101869.67;436521;121;922518;-78
2023/01/01 01:07:51;;;;;;;7.95;7.36;;;;;;;4.83;75.21;101866.97;439265;118;923048;-78
2023/01/01 01:08:54;;;;;;;7.62;7.12;;;;;;;4.83;75.23;101858.86;441613;120;922587;-76
2023/01/01 01:09:57;;;;;;;7.39;6.83;;;;;;;4.82;75.30;101858.01;441621;120;922531;-77
2023/01/01 01:11:07;;;;;;;7.45;6.74;;;;;;;4.82;75.33;101859.86;441541;120;922489;-79
2023/01/01 01:12:10;;;;;;;7.37;6.86;;;;;;;4.83;75.49;101859.72;432637;120;923080;-79
2023/01/01 01:13:15;;;;;;;7.70;7.17;;;;;;;4.84;75.51;101871.38;440934;118;922397;-79
2023/01/01 01:14:18;;;;;;;6.95;6.47;;;;;;;4.82;75.51;101862.56;441621;120;922949;-76
2023/01/01 01:15:22;;;;;;;7.16;6.66;;;;;;;4.81;75.52;101864.41;441566;120;922892;-78
2023/01/01 01:16:28;;;;;;;6.74;6.24;;;;;;;4.81;75.56;101863.55;441563;120;922939;-77
2023/01/01 01:17:31;;;;;;;7.42;6.83;;;;;;;4.80;75.51;101869.95;441942;118;922597;-77
2023/01/01 01:18:35;;;;;;;6.74;6.24;;;;;;;4.79;75.52;101869.12;449134;118;923061;-77
2023/01/01 01:19:38;;;;;;;7.33;6.83;;;;;;;4.79;75.54;101874.53;449068;118;922581;-78
2023/01/01 01:20:45;;;;;;;6.99;6.49;;;;;;;4.79;75.70;101879.08;449093;118;922648;-78
2023/01/01 01:21:50;;;;;;;7.06;6.57;;;;;;;4.78;75.70;101880.92;448679;118;922910;-77
2023/01/01 01:22:54;;;;;;;5.67;5.29;;;;;;;4.77;75.71;101881.06;449347;116;923022;-78
2023/01/01 01:23:58;;;;;;;6.94;6.44;;;;;;;4.76;75.77;101882.91;465553;114;922548;-77
2023/01/01 01:25:02;;;;;;;6.95;6.47;;;;;;;4.76;75.75;101893.72;465355;114;922457;-77
2023/01/01 01:26:16;;;;;;;6.46;6.04;;;;;;;4.76;75.71;101882.91;465474;114;922502;-78
2023/01/01 01:27:19;;;;;;;7.16;6.62;;;;;;;4.77;75.85;101884.61;465317;114;922542;-78
2023/01/01 01:28:23;;;;;;;7.47;6.92;;;;;;;4.78;75.94;101885.47;458023;114;922946;-80
2023/01/01 01:29:26;;;;;;;7.78;7.28;;;;;;;4.79;75.94;101888.04;457483;116;922925;-78
2023/01/01 01:30:29;;;;;;;6.99;6.56;;;;;;;4.81;76.00;101886.02;457401;115;922580;-78
2023/01/01 01:31:33;;;;;;;7.11;6.53;;;;;;;4.82;76.10;101878.77;457320;116;930543;-80
2023/01/01 01:32:37;;;;;;;7.49;7.00;;;;;;;4.84;76.19;101880.34;457453;112;922512;-79
2023/01/01 01:33:42;;;;;;;7.78;7.18;;;;;;;4.86;76.25;101875.62;455783;116;922615;-77
2023/01/01 01:34:46;;;;;;;6.80;6.33;;;;;;;4.90;76.15;101873.50;455611;116;922555;-79
2023/01/01 01:35:51;;;;;;;7.24;6.74;;;;;;;4.92;76.25;101869.64;455639;116;922894;-78
2023/01/01 01:36:55;;;;;;;7.31;6.53;;;;;;;4.94;76.19;101862.25;455661;116;930445;-77
2023/01/01 01:37:58;;;;;;;7.94;7.34;;;;;;;4.97;76.25;101866.48;457083;114;922595;-79
2023/01/01 01:39:01;;;;;;;6.89;6.40;;;;;;;4.98;76.12;101858.24;457423;116;922582;-78
2023/01/01 01:40:05;;;;;;;7.81;7.14;;;;;;;4.99;76.08;101857.25;457449;116;922511;-77
2023/01/01 01:41:11;;;;;;;7.55;7.02;;;;;;;5.01;76.06;101855.27;457418;116;922587;-79
2023/01/01 01:42:17;;;;;;;7.14;6.65;;;;;;;5.01;76.15;101854.41;454203;116;922971;-78
2023/01/01 01:43:32;;;;;;;7.69;7.04;;;;;;;5.01;76.08;101849.86;464313;112;922849;-78
2023/01/01 01:44:57;;;;;;;7.28;6.78;;;;;;;5.02;76.06;101853.38;464591;114;922931;-80
2023/01/01 01:46:19;;;;;;;7.07;6.57;;;;;;;5.03;75.95;101847.84;465355;114;922834;-79
2023/01/01 01:47:38;;;;;;;7.22;6.71;;;;;;;5.03;76.05;101845.12;465354;112;922894;-79
2023/01/01 01:48:45;;;;;;;7.50;7.00;;;;;;;5.03;76.11;101847.84;457289;116;922543;-79
2023/01/01 01:49:51;;;;;;;7.60;7.10;;;;;;;5.03;75.97;101849.69;457330;116;922494;-79
2023/01/01 01:50:55;;;;;;;8.06;7.54;;;;;;;5.02;75.95;101847.97;457291;115;922529;-78
2023/01/01 01:52:00;;;;;;;7.74;7.15;;;;;;;5.02;75.99;101842.56;457394;116;922515;-79
2023/01/01 01:53:07;;;;;;;7.78;7.18;;;;;;;5.01;75.87;101843.59;456324;114;922512;-77
2023/01/01 01:54:21;;;;;;;7.93;7.32;;;;;;;5.12;75.88;101839.84;477195;110;947131;-78
2023/01/01 01:55:27;;;;;;;8.73;8.05;;;;;;;5.02;75.91;101839.87;462416;114;922850;-78
2023/01/01 01:56:37;;;;;;;8.42;7.79;;;;;;;5.02;75.91;101839.87;457433;114;922920;-79
2023/01/01 01:57:41;;;;;;;8.66;7.91;;;;;;;5.03;75.92;101844.28;457288;115;922489;-79
2023/01/01 01:58:44;;;;;;;8.46;7.79;;;;;;;5.02;75.84;101839.87;457497;116;923397;-79
2023/01/01 01:59:49;;;;;;;7.62;7.06;;;;;;;5.03;75.82;101838.88;457651;116;922555;-77
2023/01/01 02:00:54;;;;;;;8.52;7.86;;;;;;;5.04;75.87;101829.77;457424;116;922556;-78
2023/01/01 02:01:58;;;;;;;8.73;8.03;;;;;;;5.04;75.91;101840.58;457420;115;922822;-77
2023/01/01 02:03:05;;;;;;;7.79;7.25;;;;;;;5.07;75.92;101839.45;457339;114;922444;-78
2023/01/01 02:04:08;;;;;;;7.31;6.74;;;;;;;5.07;75.86;101840.30;457409;116;922760;-78
2023/01/01 02:05:12;;;;;;;7.36;6.88;;;;;;;5.09;75.97;101834.72;457521;115;922874;-78
2023/01/01 02:06:18;;;;;;;6.87;6.42;;;;;;;5.10;75.93;101833.73;457514;115;922751;-78
2023/01/01 02:07:24;;;;;;;7.86;7.22;;;;;;;5.10;75.76;101833.73;457444;114;922679;-77
2023/01/01 02:08:28;;;;;;;7.32;6.77;;;;;;;5.09;75.81;101832.88;449587;118;922533;-78
2023/01/01 02:09:32;;;;;;;7.21;6.75;;;;;;;5.08;75.70;101828.46;449594;118;922956;-77
2023/01/01 02:10:35;;;;;;;7.41;6.91;;;;;;;5.10;75.73;101826.47;449779;117;922521;-78
2023/01/01 02:11:38;;;;;;;7.20;6.71;;;;;;;5.10;75.80;101823.77;449671;118;922653;-78
2023/01/01 02:12:41;;;;;;;7.66;6.94;;;;;;;5.11;75.77;101821.92;452161;114;930567;-79
2023/01/01 02:13:44;;;;;;;9.24;8.51;;;;;;;5.10;75.69;101815.66;457554;116;922505;-78
2023/01/01 02:14:48;;;;;;;9.48;8.77;;;;;;;5.11;75.66;101808.41;457659;116;922566;-78
2023/01/01 02:15:57;;;;;;;10.20;9.34;;;;;;;5.11;75.61;101814.66;457606;116;922487;-78
2023/01/01 02:17:10;;;;;;;10.49;9.51;;;;;;;5.11;75.66;101820.07;457375;115;922561;-78
2023/01/01 02:18:16;;;;;;;9.31;8.58;;;;;;;5.10;75.60;101815.66;456915;114;922531;-78
2023/01/01 02:19:32;;;;;;;8.63;7.96;;;;;;;5.09;75.59;101813.95;457396;116;922507;-78
2023/01/01 02:20:41;;;;;;;7.74;7.07;;;;;;;5.09;75.70;101816.66;457413;116;922524;-79
2023/01/01 02:22:14;;;;;;;8.66;7.96;;;;;;;5.10;75.67;101818.36;457479;114;922579;-79
2023/01/01 02:23:39;;;;;;;7.76;7.13;;;;;;;5.11;75.52;101819.22;457315;114;922893;-77
2023/01/01 02:25:00;;;;;;;7.70;7.13;;;;;;;5.09;75.53;101824.77;457118;115;922561;-78
2023/01/01 02:26:07;;;;;;;7.86;7.23;;;;;;;5.09;75.65;101823.91;457218;115;922563;-78
2023/01/01 02:27:22;;;;;;;7.64;7.10;;;;;;;5.07;75.51;101824.08;457253;115;922679;-78
2023/01/01 02:28:50;;;;;;;7.26;6.73;;;;;;;5.07;75.53;101823.23;457405;116;922546;-77
2023/01/01 02:29:57;;;;;;;8.76;8.17;;;;;;;5.06;75.59;101810.70;457436;115;923042;-78
2023/01/01 02:31:00;;;;;;;7.81;7.21;;;;;;;5.05;75.51;101812.55;457428;114;923227;-79
2023/01/01 02:32:10;;;;;;;7.25;6.69;;;;;;;5.03;75.52;101804.59;457581;116;922494;-77
2023/01/01 02:33:24;;;;;;;7.74;7.12;;;;;;;5.15;75.57;101804.39;474008;110;946968;-76
2023/01/01 02:34:30;;;;;;;7.59;7.04;;;;;;;5.03;75.57;101796.48;465482;114;922961;-78
2023/01/01 02:35:41;;;;;;;7.64;6.97;;;;;;;5.05;75.58;101793.63;465066;114;922408;-79
2023/01/01 02:36:48;;;;;;;7.11;6.64;;;;;;;5.06;75.42;101799.89;449308;116;922969;-78
2023/01/01 02:37:54;;;;;;;6.81;6.31;;;;;;;5.05;75.43;101793.63;457665;114;922732;-77
2023/01/01 02:39:01;;;;;;;6.97;6.38;;;;;;;5.05;75.29;101801.74;457440;116;922570;-78
2023/01/01 02:40:05;;;;;;;6.62;6.12;;;;;;;5.04;75.21;101802.73;457464;116;922748;-78
2023/01/01 02:41:12;;;;;;;6.42;5.99;;;;;;;5.02;75.24;101796.62;457538;116;922502;-78
2023/01/01 02:42:16;;;;;;;6.37;5.97;;;;;;;5.03;75.23;101787.52;457422;116;922878;-78
2023/01/01 02:43:19;;;;;;;7.15;6.65;;;;;;;5.03;75.31;101801.89;465136;114;922459;-79
2023/01/01 02:44:27;;;;;;;6.76;6.24;;;;;;;5.03;75.29;101801.03;465068;114;930545;-78
2023/01/01 02:45:30;;;;;;;6.35;5.95;;;;;;;5.04;75.28;101802.73;465483;114;922606;-79
2023/01/01 02:46:35;;;;;;;7.15;6.66;;;;;;;5.04;75.27;101798.19;466374;114;922302;-77
2023/01/01 02:47:38;;;;;;;6.71;6.28;;;;;;;5.04;75.33;101800.89;464788;114;922174;-77
2023/01/01 02:48:45;;;;;;;6.71;6.25;;;;;;;5.06;75.30;101794.48;458426;116;930159;-77
2023/01/01 02:49:58;;;;;;;6.57;6.12;;;;;;;5.05;75.09;101785.52;458336;116;922465;-79
2023/01/01 02:51:05;;;;;;;6.34;5.92;;;;;;;5.03;75.05;101776.70;457364;116;923331;-78
2023/01/01 02:52:23;;;;;;;6.31;5.91;;;;;;;5.02;75.32;101770.44;457895;116;922144;-78
2023/01/01 02:53:30;;;;;;;6.67;6.17;;;;;;;5.02;75.32;101770.44;457480;116;923018;-79
2023/01/01 02:55:03;;;;;;;5.61;5.26;;;;;;;5.03;75.29;101771.30;457415;116;922884;-78
2023/01/01 02:56:12;;;;;;;6.06;5.64;;;;;;;5.03;75.23;101777.55;457273;116;922511;-77
2023/01/01 02:57:37;;;;;;;6.14;5.72;;;;;;;5.01;75.19;101771.47;456854;116;922654;-79
2023/01/01 03:00:23;;;;;;;6.28;5.86;;;;;;;4.97;75.08;101764.64;465492;114;922353;-80
2023/01/01 03:01:36;;;;;;;5.64;5.25;;;;;;;4.96;75.35;101751.30;465350;114;922487;-79
2023/01/01 03:02:57;;;;;;;6.48;5.87;;;;;;;4.96;75.35;101751.30;463281;114;922510;-78
2023/01/01 03:04:16;;;;;;;6.82;6.29;;;;;;;4.97;75.33;101755.67;457428;116;923132;-79
2023/01/01 03:05:26;;;;;;;7.18;6.68;;;;;;;4.98;75.48;101752.83;456854;116;922889;-78
2023/01/01 03:06:48;;;;;;;7.20;6.70;;;;;;;5.01;75.48;101748.99;457387;116;922661;-78
2023/01/01 03:08:03;;;;;;;6.36;5.86;;;;;;;5.01;75.46;101744.44;448509;116;923379;-78
2023/01/01 03:09:25;;;;;;;6.72;6.24;;;;;;;5.02;75.42;101735.30;450278;116;922764;-77
2023/01/01 03:10:44;;;;;;;7.01;6.51;;;;;;;5.01;75.24;101744.44;457423;116;922538;-77
2023/01/01 03:11:57;;;;;;;7.97;7.42;;;;;;;5.00;75.28;101744.58;457459;116;923089;-79
2023/01/01 03:13:20;;;;;;;6.75;6.27;;;;;;;4.99;75.21;101759.09;457866;113;922886;-78
2023/01/01 03:14:38;;;;;;;7.58;7.01;;;;;;;4.97;75.08;101747.57;457403;116;922504;-78
2023/01/01 03:15:51;;;;;;;7.17;6.57;;;;;;;4.96;75.26;101746.72;457124;116;922995;-79
2023/01/01 03:16:58;;;;;;;7.25;6.74;;;;;;;4.98;75.23;101746.58;456935;116;922800;-79
2023/01/01 03:18:07;;;;;;;6.78;6.38;;;;;;;4.98;75.37;101743.87;457845;114;922592;-79
2023/01/01 03:19:20;;;;;;;6.91;6.42;;;;;;;5.10;75.30;101750.78;482558;110;947314;-79
2023/01/01 03:20:27;;;;;;;7.19;6.64;;;;;;;4.99;75.16;101745.58;473914;112;923093;-77
2023/01/01 03:21:31;;;;;;;6.72;6.14;;;;;;;5.00;75.24;101752.69;469623;112;922565;-77
2023/01/01 03:22:37;;;;;;;6.60;6.17;;;;;;;5.01;75.07;101762.51;465426;114;922778;-78
2023/01/01 03:23:45;;;;;;;6.46;5.94;;;;;;;5.01;75.13;101759.80;465512;114;922523;-79
2023/01/01 03:24:53;;;;;;;6.47;6.03;;;;;;;5.02;75.14;101759.63;465435;114;922542;-78
2023/01/01 03:25:59;;;;;;;7.03;6.44;;;;;;;5.04;75.02;101754.94;465501;114;922531;-78
2023/01/01 03:27:06;;;;;;;6.29;5.88;;;;;;;5.04;74.97;101749.53;465540;114;922851;-77
2023/01/01 03:28:22;;;;;;;6.32;5.92;;;;;;;5.06;74.93;101735.88;465197;114;922527;-78
2023/01/01 03:29:29;;;;;;;6.14;5.64;;;;;;;5.07;74.94;101724.06;465534;114;922473;-78
2023/01/01 03:30:34;;;;;;;5.86;5.47;;;;;;;5.09;74.95;101722.05;465556;114;922604;-78
2023/01/01 03:31:42;;;;;;;6.00;5.60;;;;;;;5.09;74.81;101727.45;465527;114;922952;-79
2023/01/01 03:33:02;;;;;;;6.96;6.46;;;;;;;5.09;74.89;101727.45;464890;114;922438;-78
2023/01/01 03:34:08;;;;;;;6.36;5.86;;;;;;;5.10;74.80;101739.11;465515;114;922557;-78
2023/01/01 03:35:14;;;;;;;5.74;5.36;;;;;;;5.10;74.78;101739.11;465438;113;922598;-78
2023/01/01 03:36:30;;;;;;;5.41;5.01;;;;;;;5.09;74.75;101748.22;465472;114;922506;-79
2023/01/01 03:37:33;;;;;;;5.74;5.25;;;;;;;5.09;74.72;101748.22;464386;114;923474;-78
2023/01/01 03:38:58;;;;;;;5.67;5.26;;;;;;;5.11;74.83;101748.93;465561;114;922473;-79
2023/01/01 03:40:10;;;;;;;5.87;5.47;;;;;;;5.21;74.84;101742.47;477134;110;946799;-78
2023/01/01 03:41:29;;;;;;;5.93;5.53;;;;;;;5.12;74.81;101748.79;463676;114;922474;-79
2023/01/01 03:42:41;;;;;;;6.06;5.55;;;;;;;5.12;74.70;101742.53;456965;115;922485;-79
2023/01/01 03:43:48;;;;;;;6.58;6.05;;;;;;;5.12;74.72;101737.12;457452;116;922599;-79
2023/01/01 03:45:09;;;;;;;6.21;5.75;;;;;;;5.13;74.73;101739.66;457330;115;922502;-78
2023/01/01 03:46:15;;;;;;;5.73;5.25;;;;;;;5.14;74.71;101735.95;457490;116;922546;-79
2023/01/01 03:47:19;;;;;;;4.87;4.51;;;;;;;5.16;74.78;101735.81;457440;116;922481;-78
2023/01/01 03:48:22;;;;;;;5.64;5.24;;;;;;;5.17;74.93;101726.70;457471;116;922478;-78
2023/01/01 03:49:26;;;;;;;6.20;5.80;;;;;;;5.17;74.93;101726.70;457519;116;930558;-79
2023/01/01 03:50:36;;;;;;;6.24;5.84;;;;;;;5.19;74.60;101735.48;457559;115;922510;-79
2023/01/01 03:52:15;;;;;;;6.39;5.83;;;;;;;5.31;74.67;101724.32;480358;110;946988;-79
2023/01/01 03:53:37;;;;;;;6.26;5.73;;;;;;;5.22;74.68;101727.09;471111;112;922421;-78
2023/01/01 03:55:19;;;;;;;6.56;6.06;;;;;;;5.23;74.67;101721.55;471551;112;922339;-79
2023/01/01 03:56:26;;;;;;;7.71;7.13;;;;;;;5.23;74.62;101710.73;471639;112;922326;-78
2023/01/01 03:57:44;;;;;;;7.16;6.68;;;;;;;5.24;74.61;101715.11;471282;112;922917;-76
2023/01/01 03:59:00;;;;;;;8.78;7.99;;;;;;;5.25;74.60;101716.81;471530;112;922482;-78
2023/01/01 04:00:13;;;;;;;9.93;9.03;;;;;;;5.26;74.51;101715.81;470871;112;923272;-77
2023/01/01 04:01:31;;;;;;;10.37;9.49;;;;;;;5.37;74.61;101707.48;478585;110;947228;-78
2023/01/01 04:02:38;;;;;;;10.41;9.51;;;;;;;5.28;74.63;101707.56;465336;114;922514;-79
2023/01/01 04:03:49;;;;;;;10.42;9.52;;;;;;;5.40;74.63;101723.39;482571;110;947155;-79
2023/01/01 04:04:53;;;;;;;11.71;10.68;;;;;;;5.32;74.58;101715.20;472305;112;922825;-78
2023/01/01 04:05:57;;;;;;;12.82;11.55;;;;;;;5.33;74.52;101725.03;472343;112;930295;-78
2023/01/01 04:07:00;;;;;;;12.51;11.36;;;;;;;5.34;74.38;101717.77;465539;114;922767;-78
2023/01/01 04:08:06;;;;;;;12.16;11.04;;;;;;;5.36;74.35;101711.19;455747;114;922874;-79
2023/01/01 04:09:12;;;;;;;10.63;9.66;;;;;;;5.39;74.28;101710.89;455827;116;923064;-78
2023/01/01 04:10:16;;;;;;;11.07;10.06;;;;;;;5.40;74.21;101720.69;455714;116;922577;-79
2023/01/01 04:12:48;;;;;;;9.89;8.91;;;;;;;5.46;74.18;101721.92;456780;113;922976;-78
2023/01/01 04:13:51;;;;;;;10.45;9.40;;;;;;;5.49;74.16;101716.22;448033;118;922565;-79
2023/01/01 04:14:54;;;;;;;9.73;8.83;;;;;;;5.51;74.23;101729.61;448608;116;922572;-79
2023/01/01 04:15:58;;;;;;;9.24;8.36;;;;;;;5.53;74.09;101730.28;457594;116;922764;-79
2023/01/01 04:17:03;;;;;;;8.76;8.04;;;;;;;5.54;73.90;101722.02;457524;116;922504;-79
2023/01/01 04:18:07;;;;;;;8.19;7.49;;;;;;;5.54;73.80;101730.13;457418;114;930516;-78
2023/01/01 04:19:10;;;;;;;8.41;7.71;;;;;;;5.56;73.80;101727.28;457512;116;922592;-77
2023/01/01 04:20:13;;;;;;;7.32;6.71;;;;;;;5.55;73.63;101729.14;457521;116;930508;-77
2023/01/01 04:21:16;;;;;;;6.58;6.08;;;;;;;5.56;73.59;101730.84;457517;116;922593;-77
2023/01/01 04:22:22;;;;;;;6.47;5.90;;;;;;;5.55;73.61;101720.17;457581;114;922915;-79
2023/01/01 04:23:25;;;;;;;5.98;5.53;;;;;;;5.56;73.42;101732.70;463825;114;922854;-78
2023/01/01 04:24:28;;;;;;;6.20;5.61;;;;;;;5.55;73.32;101728.28;464359;114;922436;-79
2023/01/01 04:25:31;;;;;;;5.42;5.02;;;;;;;5.55;73.32;101728.28;464198;114;922694;-78
2023/01/01 04:26:34;;;;;;;5.29;4.89;;;;;;;5.57;73.42;101723.58;464211;114;922989;-77
2023/01/01 04:27:38;;;;;;;5.79;5.39;;;;;;;5.57;73.23;101718.17;463497;114;928167;-78
2023/01/01 04:28:42;;;;;;;5.64;5.21;;;;;;;5.57;73.23;101718.98;462326;114;922512;-77
2023/01/01 04:29:45;;;;;;;5.79;5.29;;;;;;;5.58;73.36;101709.88;462319;114;922632;-78
2023/01/01 04:30:49;;;;;;;5.76;5.36;;;;;;;5.60;73.23;101712.44;462408;114;922634;-79
2023/01/01 04:31:52;;;;;;;5.84;5.44;;;;;;;5.61;73.21;101712.29;462392;114;922637;-78
2023/01/01 04:32:56;;;;;;;6.12;5.68;;;;;;;5.62;73.20;101700.47;459832;114;922651;-78
2023/01/01 04:33:59;;;;;;;6.69;6.09;;;;;;;5.63;73.10;101701.28;457559;116;923024;-78
2023/01/01 04:35:03;;;;;;;6.27;5.67;;;;;;;5.64;73.03;101700.29;457604;116;922557;-78
2023/01/01 04:36:09;;;;;;;6.86;6.27;;;;;;;5.64;73.03;101698.44;457352;116;922541;-78
2023/01/01 04:37:13;;;;;;;7.18;6.58;;;;;;;5.64;72.85;101701.14;457373;116;922972;-79
2023/01/01 04:38:16;;;;;;;6.66;6.09;;;;;;;5.64;72.92;101694.87;458075;114;922530;-79
2023/01/01 04:39:19;;;;;;;6.08;5.59;;;;;;;5.64;72.79;101695.73;457599;116;923341;-78
2023/01/01 04:40:22;;;;;;;5.96;5.46;;;;;;;5.64;72.75;101693.02;457554;116;922869;-79
2023/01/01 04:41:25;;;;;;;6.16;5.66;;;;;;;5.64;72.64;101687.61;457554;116;922655;-78
2023/01/01 04:42:28;;;;;;;6.62;6.15;;;;;;;5.63;72.62;101688.61;448535;118;922633;-78
2023/01/01 04:43:31;;;;;;;6.42;5.90;;;;;;;5.63;72.63;101693.17;441410;120;922510;-77
2023/01/01 04:44:34;;;;;;;5.99;5.55;;;;;;;5.63;72.60;101690.47;441445;120;922609;-78
2023/01/01 04:45:38;;;;;;;5.92;5.43;;;;;;;5.62;72.57;101692.34;457584;116;922491;-77
2023/01/01 04:46:41;;;;;;;5.96;5.52;;;;;;;5.61;72.70;101696.05;457478;116;922505;-78
2023/01/01 04:47:44;;;;;;;5.67;5.17;;;;;;;5.62;72.74;101689.64;457863;114;922532;-79
2023/01/01 04:48:48;;;;;;;5.49;5.09;;;;;;;5.62;72.66;101681.53;457637;116;922517;-79
2023/01/01 04:49:51;;;;;;;5.42;5.02;;;;;;;5.64;72.62;101692.17;457537;116;922991;-78
2023/01/01 04:51:00;;;;;;;5.91;5.51;;;;;;;5.64;72.62;101692.17;457500;116;922537;-79
2023/01/01 04:52:03;;;;;;;6.14;5.66;;;;;;;5.63;72.62;101683.20;457359;116;922942;-78
2023/01/01 04:53:07;;;;;;;5.71;5.31;;;;;;;5.65;72.43;101686.61;463036;114;923002;-78
2023/01/01 04:54:10;;;;;;;5.47;5.08;;;;;;;5.64;72.40;101676.80;465554;114;930486;-79
2023/01/01 04:55:13;;;;;;;5.86;5.43;;;;;;;5.65;72.43;101681.20;463974;114;922564;-78
2023/01/01 04:56:19;;;;;;;6.16;5.72;;;;;;;5.65;72.38;101681.20;457471;116;922591;-79
2023/01/01 04:57:22;;;;;;;5.68;5.11;;;;;;;5.66;72.47;101682.05;457371;114;922535;-77
2023/01/01 04:58:25;;;;;;;4.83;4.49;;;;;;;5.67;72.36;101681.05;463995;114;922496;-78
2023/01/01 04:59:29;;;;;;;5.37;4.97;;;;;;;5.66;72.35;101684.77;464310;114;922473;-79
2023/01/01 05:00:33;;;;;;;5.57;5.13;;;;;;;5.66;72.24;101687.47;464148;114;922484;-79
2023/01/01 05:01:36;;;;;;;4.78;4.41;;;;;;;5.65;72.19;101692.02;464213;114;922522;-78
2023/01/01 05:02:39;;;;;;;5.47;5.08;;;;;;;5.64;72.13;101687.61;462565;114;922561;-77
2023/01/01 05:03:43;;;;;;;5.09;4.69;;;;;;;5.66;72.18;101695.58;457431;116;922643;-76
2023/01/01 05:04:46;;;;;;;6.73;4.91;;;;;;;5.67;72.16;101705.41;457599;116;922559;-79
2023/01/01 05:06:10;;;;;;;4.72;4.43;;;;;;;5.67;72.08;101700.00;457534;116;922407;-78
2023/01/01 05:07:13;;;;;;;6.06;5.03;;;;;;;5.67;72.14;101711.67;457362;114;922549;-77
2023/01/01 05:08:16;;;;;;;5.38;5.04;;;;;;;5.66;72.12;101707.26;457684;114;922521;-78
2023/01/01 05:09:19;;;;;;;5.07;4.68;;;;;;;5.67;72.16;101711.67;457511;116;922521;-78
2023/01/01 05:10:23;;;;;;;4.81;4.51;;;;;;;5.68;72.20;101712.52;457536;116;922898;-79
2023/01/01 05:11:28;;;;;;;5.07;4.67;;;;;;;5.69;72.07;101703.38;457600;114;922730;-79
2023/01/01 05:12:32;;;;;;;4.67;4.35;;;;;;;5.69;72.12;101696.11;458010;114;922609;-79
2023/01/01 05:13:36;;;;;;;4.66;4.36;;;;;;;5.69;72.06;101697.96;465634;114;922949;-79
2023/01/01 05:14:39;;;;;;;4.72;4.42;;;;;;;5.70;72.01;101702.38;465520;114;922525;-77
2023/01/01 05:15:42;;;;;;;5.01;4.66;;;;;;;5.70;72.09;101696.96;465587;114;922494;-79